Time;durP1;ratioP1;P1;durP2;ratioP2;P2;SDS_P1;SDS_P2;PMS_P1;PMS_P2;Temp;Humidity;BMP_temperature;BMP_pressure;BME280_temperature;BME280_humidity;BME280_pressure;Samples;Min_cycle;Max_cycle;Signal;HPM_P1;HPM_P2
2022/11/06 00:01:16;;;;;;;6.65;3.42;;;;;;;10.75;73.16;101228.34;3576727;40;20130;-61
2022/11/06 00:03:43;;;;;;;5.53;3.10;;;;;;;10.75;73.53;101238.22;3577545;40;20496;-61
2022/11/06 00:09:00;;;;;;;7.05;3.47;;;;;;;10.71;73.14;101234.84;3577382;40;20070;-61
2022/11/06 00:11:26;;;;;;;8.20;3.28;;;;;;;10.71;73.14;101234.84;3576758;40;20174;-61
2022/11/06 00:13:51;;;;;;;8.75;3.22;;;;;;;10.68;73.52;101235.00;3576775;40;20387;-60
2022/11/06 00:16:18;;;;;;;8.60;3.42;;;;;;;10.68;73.71;101233.19;3578492;40;20071;-60
2022/11/06 00:18:45;;;;;;;6.40;3.33;;;;;;;10.58;73.16;101220.34;3577331;40;20049;-60
2022/11/06 00:21:21;;;;;;;10.52;3.35;;;;;;;10.63;73.30;101234.41;3582230;40;20052;-59
2022/11/06 00:23:46;;;;;;;5.70;3.25;;;;;;;10.60;73.47;101230.06;3580369;40;20055;-59
2022/11/06 00:26:19;;;;;;;10.05;3.50;;;;;;;10.55;73.67;101217.81;3580467;40;20383;-60
2022/11/06 00:28:47;;;;;;;9.02;3.22;;;;;;;10.52;74.28;101221.53;3578041;40;20049;-60
2022/11/06 00:31:21;;;;;;;6.20;3.50;;;;;;;10.51;74.25;101230.56;3578010;40;20067;-60
2022/11/06 00:33:47;;;;;;;8.20;3.22;;;;;;;10.47;74.28;101223.63;3577344;40;20049;-60
2022/11/06 00:36:19;;;;;;;6.97;2.95;;;;;;;10.44;74.22;101219.28;3581049;40;20376;-60
2022/11/06 00:38:45;;;;;;;7.05;3.30;;;;;;;10.43;74.17;101206.81;3577642;40;20114;-60
2022/11/06 00:41:15;;;;;;;7.95;3.10;;;;;;;10.41;73.88;101208.72;3580494;40;20056;-60
2022/11/06 00:43:47;;;;;;;7.03;3.00;;;;;;;10.37;73.93;101196.41;3581257;40;20064;-60
2022/11/06 00:46:13;;;;;;;10.02;3.42;;;;;;;10.39;73.93;101199.84;3579767;40;20059;-59
2022/11/06 00:48:41;;;;;;;9.70;3.20;;;;;;;10.31;74.15;101185.13;3583116;40;20129;-60
2022/11/06 00:51:15;;;;;;;8.85;3.63;;;;;;;10.39;74.36;101205.22;3579298;40;20107;-59
2022/11/06 00:53:43;;;;;;;7.32;3.25;;;;;;;10.42;74.34;101201.50;3578228;40;20051;-61
2022/11/06 00:56:12;;;;;;;5.18;3.35;;;;;;;10.29;73.97;101177.13;3578448;40;20052;-60
2022/11/06 00:58:40;;;;;;;6.53;3.40;;;;;;;10.40;74.05;101198.03;3578870;40;20053;-59
2022/11/06 01:01:12;;;;;;;6.45;2.97;;;;;;;10.39;74.25;101205.22;3581097;40;20072;-59
2022/11/06 01:03:41;;;;;;;5.60;2.97;;;;;;;10.35;74.54;101224.31;3579646;40;20048;-58
2022/11/06 01:06:21;;;;;;;9.13;3.40;;;;;;;10.35;74.29;101213.56;3579442;40;20068;-59
2022/11/06 01:08:48;;;;;;;11.35;3.00;;;;;;;10.25;74.41;101194.34;3580524;40;20060;-59
2022/11/06 01:11:37;;;;;;;7.70;3.30;;;;;;;10.33;74.18;101210.06;3580870;40;20122;-58
2022/11/06 01:14:05;;;;;;;8.88;3.38;;;;;;;10.30;74.57;101203.03;3581869;40;20401;-58
2022/11/06 01:16:32;;;;;;;7.97;2.70;;;;;;;10.28;74.54;101202.28;3577768;40;20092;-59
2022/11/06 01:18:58;;;;;;;10.48;3.20;;;;;;;10.28;74.59;101198.72;3579156;40;20300;-58
2022/11/06 01:21:31;;;;;;;9.52;3.05;;;;;;;10.26;75.00;101196.09;3578139;40;20129;-59
2022/11/06 01:24:02;;;;;;;10.35;3.00;;;;;;;10.09;74.81;101163.91;3578125;40;20050;-59
2022/11/06 01:26:29;;;;;;;6.85;2.70;;;;;;;10.24;74.83;101195.28;3577766;40;20052;-58
2022/11/06 01:28:55;;;;;;;5.97;2.70;;;;;;;10.27;74.48;101200.53;3581010;40;20106;-59
2022/11/06 01:31:26;;;;;;;8.60;3.20;;;;;;;10.28;74.73;101179.91;3578735;40;20287;-59
2022/11/06 01:33:58;;;;;;;8.43;2.90;;;;;;;10.24;74.96;101173.78;3582179;40;20099;-59
2022/11/06 01:36:25;;;;;;;8.88;2.85;;;;;;;10.31;75.07;101186.00;3578944;40;20068;-59
2022/11/06 01:38:53;;;;;;;5.53;2.88;;;;;;;10.33;74.49;101176.00;3578704;40;20078;-61
2022/11/06 01:41:33;;;;;;;8.18;2.63;;;;;;;10.34;75.11;101168.81;3578578;40;20052;-59
2022/11/06 01:44:06;;;;;;;9.07;2.60;;;;;;;10.36;74.83;101166.91;3579595;40;20077;-58
2022/11/06 01:46:34;;;;;;;7.88;2.80;;;;;;;10.30;74.35;101143.06;3578099;40;20107;-59
2022/11/06 01:49:14;;;;;;;3.72;2.40;;;;;;;10.41;74.23;101163.03;3581007;40;20062;-59
2022/11/06 01:52:01;;;;;;;7.25;2.80;;;;;;;10.45;73.92;101171.78;3578186;40;20096;-59
2022/11/06 01:54:33;;;;;;;9.13;2.67;;;;;;;10.45;74.38;101161.03;3578875;40;20045;-59
2022/11/06 01:57:02;;;;;;;7.15;2.60;;;;;;;10.48;74.07;101154.63;3575750;40;20430;-59
2022/11/06 01:59:34;;;;;;;7.18;2.80;;;;;;;10.58;73.87;101156.69;3578305;40;20133;-59
2022/11/06 02:02:00;;;;;;;7.47;2.55;;;;;;;10.63;73.36;101159.13;3576852;40;20055;-59
2022/11/06 02:04:34;;;;;;;10.90;2.85;;;;;;;10.68;73.42;101154.34;3576050;40;20080;-59
2022/11/06 02:07:01;;;;;;;9.65;2.75;;;;;;;10.66;73.94;101156.28;3578041;40;20053;-58
2022/11/06 02:09:33;;;;;;;8.70;2.45;;;;;;;10.70;73.79;101163.19;3577804;40;20430;-57
2022/11/06 02:12:31;;;;;;;8.90;2.50;;;;;;;10.74;73.70;101148.63;3579324;40;21210;-58
2022/11/06 02:15:29;;;;;;;4.85;2.00;;;;;;;10.75;73.80;101142.31;3580417;40;20394;-58
2022/11/06 02:18:23;;;;;;;9.43;2.40;;;;;;;10.77;72.80;101145.75;3570803;40;20072;-59
2022/11/06 02:21:16;;;;;;;5.25;2.03;;;;;;;10.81;73.06;101141.06;3578513;40;20408;-58
2022/11/06 02:24:09;;;;;;;4.97;2.35;;;;;;;10.82;72.59;101137.44;3577111;40;20068;-59
2022/11/06 02:27:17;;;;;;;7.07;2.23;;;;;;;10.80;72.68;101140.19;3578669;40;20175;-59
2022/11/06 02:30:06;;;;;;;5.35;2.42;;;;;;;10.76;72.89;101138.66;3578655;40;20044;-59
2022/11/06 02:32:53;;;;;;;7.13;2.42;;;;;;;10.76;73.07;101127.03;3578413;40;20410;-58
2022/11/06 02:35:30;;;;;;;5.00;2.30;;;;;;;10.76;73.53;101130.59;3579408;40;20064;-59
2022/11/06 02:38:12;;;;;;;11.50;2.78;;;;;;;10.75;73.15;101122.59;3577810;40;20133;-59
2022/11/06 02:41:03;;;;;;;9.52;2.30;;;;;;;10.71;72.92;101116.53;3576863;40;20091;-58
2022/11/06 02:43:38;;;;;;;8.40;2.75;;;;;;;10.75;73.32;101120.78;3579312;40;20072;-59
2022/11/06 02:46:33;;;;;;;7.57;2.70;;;;;;;10.77;73.02;101121.56;3578078;40;20296;-59
2022/11/06 02:49:08;;;;;;;6.80;2.25;;;;;;;10.78;73.54;101128.66;3575580;40;21034;-58
2022/11/06 02:52:07;;;;;;;9.70;2.90;;;;;;;10.79;72.99;101127.72;3577090;40;20060;-59
2022/11/06 02:54:39;;;;;;;7.90;2.35;;;;;;;10.80;72.72;101128.59;3576154;40;20060;-58
2022/11/06 02:57:14;;;;;;;11.23;2.58;;;;;;;10.75;73.53;101131.56;3578418;40;20092;-59
2022/11/06 02:59:49;;;;;;;5.97;2.63;;;;;;;10.74;73.62;101121.72;3579518;40;20052;-59
2022/11/06 03:02:49;;;;;;;7.30;2.80;;;;;;;10.73;73.14;101124.53;3578451;40;20188;-60
2022/11/06 03:05:28;;;;;;;9.35;2.60;;;;;;;10.72;73.75;101130.84;3575947;40;20088;-59
2022/11/06 03:08:07;;;;;;;8.50;2.75;;;;;;;10.70;73.23;101139.00;3576704;40;20056;-59
2022/11/06 03:10:57;;;;;;;10.07;2.95;;;;;;;10.71;73.37;101146.09;3579488;40;20351;-58
2022/11/06 03:14:04;;;;;;;5.93;2.10;;;;;;;10.75;73.56;101146.78;3580132;40;20056;-59
2022/11/06 03:16:57;;;;;;;6.38;2.72;;;;;;;10.76;73.51;101133.28;3569430;40;20121;-59
2022/11/06 03:19:54;;;;;;;5.82;2.28;;;;;;;10.78;73.49;101119.72;3578244;40;20053;-59
2022/11/06 03:22:37;;;;;;;7.32;2.20;;;;;;;10.77;73.38;101124.25;3577679;40;20067;-59
2022/11/06 03:25:24;;;;;;;7.55;2.63;;;;;;;10.79;73.21;101114.28;3579790;40;20326;-59
2022/11/06 03:28:29;;;;;;;9.77;3.22;;;;;;;10.76;73.81;101103.69;3576916;40;20064;-58
2022/11/06 03:31:06;;;;;;;5.72;2.55;;;;;;;10.74;73.67;101107.44;3575144;40;20109;-58
2022/11/06 03:33:39;;;;;;;6.55;2.58;;;;;;;10.72;73.38;101098.56;3579424;40;20048;-62
2022/11/06 03:36:29;;;;;;;5.93;2.45;;;;;;;10.68;73.79;101095.19;3580705;40;20515;-59
2022/11/06 03:39:04;;;;;;;8.15;2.38;;;;;;;10.38;74.25;101054.84;3576543;40;20056;-59
2022/11/06 03:41:48;;;;;;;9.35;2.70;;;;;;;10.60;73.83;101086.72;3579608;40;20066;-60
2022/11/06 03:44:20;;;;;;;;;;;;;;;10.56;74.12;101082.47;3579144;40;20162;-59
2022/11/06 03:47:18;;;;;;;6.68;2.20;;;;;;;10.56;74.75;101090.53;3578341;40;20046;-59
2022/11/06 03:50:03;;;;;;;7.15;2.30;;;;;;;10.60;74.57;101079.53;3573301;40;20319;-59
2022/11/06 03:52:45;;;;;;;5.28;2.17;;;;;;;10.63;74.86;101067.72;3579506;40;20044;-60
2022/11/06 03:55:32;;;;;;;4.75;2.10;;;;;;;10.60;74.89;101063.41;3582442;40;20116;-59
2022/11/06 03:58:11;;;;;;;6.50;2.58;;;;;;;10.67;74.67;101058.53;3576981;40;21851;-59
2022/11/06 04:00:41;;;;;;;6.63;2.20;;;;;;;10.68;74.60;101057.56;3578208;40;20123;-58
2022/11/06 04:03:30;;;;;;;6.32;2.28;;;;;;;10.73;74.43;101050.09;3579739;40;20388;-58
2022/11/06 04:06:21;;;;;;;7.38;2.20;;;;;;;10.74;74.02;101046.44;3579857;40;20084;-58
2022/11/06 04:14:31;;;;;;;7.38;2.42;;;;;;;10.80;74.72;101048.78;3578775;40;20085;-59
2022/11/06 04:17:08;;;;;;;6.57;2.55;;;;;;;10.84;74.28;101044.06;3580682;40;20063;-58
2022/11/06 04:19:34;;;;;;;9.68;2.65;;;;;;;10.83;73.83;101032.47;3579853;40;20376;-59
2022/11/06 04:22:20;;;;;;;5.32;2.40;;;;;;;10.89;73.74;101029.41;3580650;40;20064;-59
2022/11/06 04:28:50;;;;;;;6.85;2.53;;;;;;;10.78;74.14;100996.03;3580790;40;20053;-58
2022/11/06 04:31:45;;;;;;;7.35;2.20;;;;;;;10.85;74.58;101014.41;3583572;40;20047;-58
2022/11/06 04:34:35;;;;;;;5.53;2.42;;;;;;;10.82;74.79;101019.13;3583969;40;20041;-59
2022/11/06 04:37:33;;;;;;;5.70;2.33;;;;;;;10.79;74.70;101020.16;3582800;40;20122;-58
2022/11/06 04:40:27;;;;;;;6.82;2.65;;;;;;;10.80;74.86;101016.50;3580646;40;20134;-60
2022/11/06 04:43:05;;;;;;;6.18;2.55;;;;;;;10.70;74.68;100999.19;3560826;40;20057;-60
2022/11/06 04:45:40;;;;;;;6.35;2.00;;;;;;;10.78;75.00;101013.03;3580114;40;20335;-58
2022/11/06 04:48:09;;;;;;;6.68;2.60;;;;;;;10.77;75.33;101010.44;3579275;40;20049;-58
2022/11/06 04:50:47;;;;;;;5.85;2.33;;;;;;;10.75;74.66;101012.34;3580589;40;20048;-59
2022/11/06 04:53:17;;;;;;;5.82;2.13;;;;;;;10.72;75.29;101010.72;3583547;40;20075;-59
2022/11/06 04:56:00;;;;;;;6.13;2.50;;;;;;;10.72;75.17;101002.66;3582385;40;20056;-58
2022/11/06 04:58:26;;;;;;;10.73;3.20;;;;;;;10.68;75.16;101001.09;3578676;40;20100;-58
2022/11/06 05:00:52;;;;;;;8.35;2.10;;;;;;;10.73;74.95;101004.38;3580322;40;20048;-58
2022/11/06 05:03:18;;;;;;;7.72;2.30;;;;;;;10.25;74.88;100923.00;3582263;40;20331;-59
2022/11/06 05:05:44;;;;;;;5.50;2.33;;;;;;;10.64;75.40;100995.03;3581404;40;20113;-59
2022/11/06 05:08:16;;;;;;;6.15;2.63;;;;;;;10.68;75.93;100998.41;3578811;40;20084;-58
2022/11/06 05:10:42;;;;;;;8.23;2.33;;;;;;;10.63;75.54;100996.00;3580692;40;20102;-60
2022/11/06 05:13:08;;;;;;;4.40;2.15;;;;;;;10.65;75.55;100995.91;3581514;40;20052;-59
2022/11/06 05:15:34;;;;;;;6.65;2.10;;;;;;;10.60;75.81;100988.13;3580783;40;20125;-58
2022/11/06 05:18:00;;;;;;;5.45;2.53;;;;;;;10.62;75.46;100991.56;3579916;40;20146;-58
2022/11/06 05:20:25;;;;;;;6.30;2.40;;;;;;;10.61;76.40;100988.97;3580712;40;20055;-58
2022/11/06 05:22:57;;;;;;;5.90;1.95;;;;;;;10.59;76.14;100981.03;3581537;40;20064;-57
2022/11/06 05:25:36;;;;;;;6.18;2.65;;;;;;;10.60;76.25;100977.38;3582334;40;20055;-58
2022/11/06 05:28:05;;;;;;;4.80;2.60;;;;;;;10.49;76.47;100961.00;3579838;40;20096;-57
2022/11/06 05:30:34;;;;;;;5.80;2.50;;;;;;;10.59;75.89;100974.75;3581489;40;20048;-58
2022/11/06 05:33:00;;;;;;;6.55;2.30;;;;;;;10.60;75.88;100968.44;3578382;40;20343;-58
2022/11/06 05:35:25;;;;;;;7.28;2.35;;;;;;;10.61;76.67;100967.47;3580709;40;20071;-58
2022/11/06 05:37:59;;;;;;;5.53;2.08;;;;;;;10.55;76.58;100965.16;3579522;40;20064;-58
2022/11/06 05:40:24;;;;;;;6.65;2.50;;;;;;;10.59;76.08;100977.44;3578029;40;20092;-57
2022/11/06 05:42:50;;;;;;;5.93;2.47;;;;;;;10.57;75.92;100960.56;3581332;40;20059;-58
2022/11/06 05:45:15;;;;;;;5.80;2.33;;;;;;;10.58;76.78;100973.03;3585626;40;20063;-58
2022/11/06 05:47:41;;;;;;;9.45;2.42;;;;;;;10.59;76.28;100972.06;3579699;40;20075;-57
2022/11/06 05:50:08;;;;;;;7.18;2.22;;;;;;;10.60;76.21;100963.06;3570443;40;20059;-61
2022/11/06 05:52:36;;;;;;;5.80;2.17;;;;;;;10.57;75.82;100966.81;3578791;40;20040;-56
2022/11/06 05:55:02;;;;;;;7.50;2.58;;;;;;;10.57;76.82;100961.44;3577485;40;20581;-59
2022/11/06 05:57:27;;;;;;;5.60;2.20;;;;;;;10.54;75.99;100963.44;3581471;40;20096;-58
2022/11/06 05:59:53;;;;;;;7.47;2.35;;;;;;;10.59;76.24;100958.63;3579842;40;20056;-58
2022/11/06 06:02:18;;;;;;;4.25;2.22;;;;;;;10.60;76.59;100952.31;3578914;40;20049;-58
2022/11/06 06:04:44;;;;;;;8.95;2.38;;;;;;;10.58;76.57;100951.53;3581197;40;20071;-58
2022/11/06 06:07:10;;;;;;;4.97;1.83;;;;;;;10.58;75.59;100957.78;3581948;40;20049;-58
2022/11/06 06:09:35;;;;;;;10.45;2.60;;;;;;;10.59;76.10;100955.94;3582347;40;20571;-58
2022/11/06 06:12:01;;;;;;;6.85;2.28;;;;;;;10.60;76.28;100958.56;3579113;40;20067;-58
2022/11/06 06:14:26;;;;;;;7.95;2.35;;;;;;;10.62;75.46;100953.06;3578156;40;20060;-58
2022/11/06 06:16:52;;;;;;;7.05;2.05;;;;;;;10.61;75.57;100945.97;3578610;40;20068;-59
2022/11/06 06:19:18;;;;;;;8.43;3.00;;;;;;;10.60;75.79;100947.81;3580002;40;20056;-58
2022/11/06 06:21:43;;;;;;;7.63;2.35;;;;;;;10.60;75.42;100941.56;3576434;40;20315;-58
2022/11/06 06:24:09;;;;;;;7.60;2.53;;;;;;;10.60;75.74;100933.50;3581830;40;20273;-59
2022/11/06 06:26:35;;;;;;;4.88;2.22;;;;;;;10.59;76.06;100934.44;3580918;40;20666;-59
2022/11/06 06:29:01;;;;;;;4.45;2.00;;;;;;;10.60;75.35;100941.56;3578737;40;20068;-59
2022/11/06 06:31:26;;;;;;;9.52;4.38;;;;;;;10.62;75.66;100947.69;3577544;40;20056;-59
2022/11/06 06:33:52;;;;;;;5.72;2.22;;;;;;;10.63;75.81;100952.13;3577413;40;20052;-58
2022/11/06 06:36:18;;;;;;;8.02;2.15;;;;;;;10.62;75.88;100958.44;3576850;40;20075;-58
2022/11/06 06:38:43;;;;;;;5.68;2.47;;;;;;;10.61;75.55;100956.72;3580255;40;20048;-58
2022/11/06 06:41:09;;;;;;;7.78;2.03;;;;;;;10.59;75.34;100953.25;3574480;40;20056;-58
2022/11/06 06:43:35;;;;;;;7.75;2.40;;;;;;;10.61;75.17;100957.59;3577067;40;20064;-59
2022/11/06 06:46:05;;;;;;;6.50;2.30;;;;;;;10.64;75.58;100959.22;3576674;40;20323;-59
2022/11/06 06:48:31;;;;;;;5.70;2.30;;;;;;;10.56;75.70;100937.31;3577826;40;20056;-58
2022/11/06 06:50:59;;;;;;;5.63;2.45;;;;;;;10.70;75.38;100958.88;3574840;40;20072;-58
2022/11/06 06:53:25;;;;;;;5.57;2.20;;;;;;;10.71;74.95;100946.28;3578461;40;20273;-58
2022/11/06 06:55:51;;;;;;;10.02;2.92;;;;;;;10.73;75.72;100944.38;3582376;40;20071;-59
2022/11/06 06:58:17;;;;;;;5.95;2.42;;;;;;;10.77;75.46;100952.16;3577398;40;20122;-58
2022/11/06 07:00:43;;;;;;;7.80;2.28;;;;;;;10.81;74.74;100937.56;3577304;40;20379;-58
2022/11/06 07:03:09;;;;;;;5.15;1.70;;;;;;;10.85;75.17;100935.56;3577279;40;20056;-58
2022/11/06 07:05:35;;;;;;;5.60;2.20;;;;;;;10.89;74.97;100940.66;3580539;40;20078;-58
2022/11/06 07:08:01;;;;;;;6.85;2.10;;;;;;;10.95;74.43;100930.50;3579506;40;20055;-58
2022/11/06 07:10:27;;;;;;;8.05;2.65;;;;;;;10.93;74.68;100936.81;3577309;40;20088;-58
2022/11/06 07:12:52;;;;;;;5.82;2.00;;;;;;;11.05;74.35;100940.56;3580886;40;21337;-59
2022/11/06 07:15:18;;;;;;;4.88;1.90;;;;;;;11.11;74.59;100933.94;3580013;40;20141;-59
2022/11/06 07:17:43;;;;;;;4.88;1.90;;;;;;;11.17;73.76;100936.25;3578154;40;20059;-59
2022/11/06 07:20:09;;;;;;;5.20;1.80;;;;;;;11.22;73.47;100936.81;3575981;40;20064;-58
2022/11/06 07:22:35;;;;;;;7.68;1.98;;;;;;;11.22;73.37;100935.97;3578619;40;20056;-58
2022/11/06 07:25:01;;;;;;;7.15;2.22;;;;;;;11.30;73.90;100942.59;3577258;40;20060;-58
2022/11/06 07:27:27;;;;;;;7.60;2.40;;;;;;;11.32;73.32;100927.22;3579505;40;20044;-59
2022/11/06 07:29:53;;;;;;;7.00;1.98;;;;;;;11.41;73.18;100932.97;3578548;40;20040;-59
2022/11/06 07:32:19;;;;;;;5.85;2.08;;;;;;;11.42;72.97;100929.31;3578372;40;20087;-59
2022/11/06 07:34:45;;;;;;;5.70;1.80;;;;;;;11.44;72.62;100952.47;3576735;40;20088;-60
2022/11/06 07:37:10;;;;;;;8.07;2.03;;;;;;;11.54;72.93;100945.53;3574332;40;20057;-59
2022/11/06 07:39:36;;;;;;;4.32;1.70;;;;;;;11.59;73.04;100939.88;3578377;40;20052;-58
2022/11/06 07:42:02;;;;;;;6.90;2.08;;;;;;;11.63;72.39;100936.88;3580630;40;20067;-59
2022/11/06 07:44:27;;;;;;;5.75;2.17;;;;;;;11.67;72.70;100924.09;3582308;40;20048;-58
2022/11/06 07:46:53;;;;;;;4.63;1.45;;;;;;;11.73;72.43;100920.97;3579119;40;21548;-59
2022/11/06 07:49:18;;;;;;;6.55;2.13;;;;;;;11.81;72.45;100918.66;3578145;40;20062;-59
2022/11/06 07:51:44;;;;;;;5.55;1.70;;;;;;;11.84;71.33;100923.88;3578956;40;20059;-59
2022/11/06 07:54:10;;;;;;;5.72;2.20;;;;;;;11.85;71.44;100913.97;3575208;40;20272;-59
2022/11/06 07:56:37;;;;;;;3.88;1.92;;;;;;;11.89;71.60;100914.63;3579761;40;20056;-59
2022/11/06 07:59:04;;;;;;;8.18;2.20;;;;;;;11.55;71.08;100842.28;3583494;40;20308;-59
2022/11/06 08:01:30;;;;;;;4.65;1.95;;;;;;;11.96;71.03;100897.97;3577713;40;20110;-59
2022/11/06 08:03:56;;;;;;;5.05;1.75;;;;;;;11.98;71.18;100903.25;3577339;40;20068;-59
2022/11/06 08:06:22;;;;;;;3.08;1.70;;;;;;;11.95;71.40;100906.13;3578692;40;20111;-59
2022/11/06 08:08:47;;;;;;;5.40;1.85;;;;;;;12.01;70.76;100913.81;3578657;40;20060;-60
2022/11/06 08:11:14;;;;;;;5.57;1.90;;;;;;;12.00;70.97;100918.34;3581589;40;20391;-59
2022/11/06 08:13:39;;;;;;;5.90;2.22;;;;;;;12.02;70.88;100905.66;3578684;40;20064;-59
2022/11/06 08:16:11;;;;;;;4.93;1.77;;;;;;;12.03;70.64;100912.75;3578373;40;20058;-59
2022/11/06 08:18:38;;;;;;;6.90;1.80;;;;;;;12.04;71.25;100902.84;3578530;40;20302;-59
2022/11/06 08:21:05;;;;;;;2.05;1.58;;;;;;;11.97;70.55;100882.66;3575505;40;20055;-59
2022/11/06 08:23:35;;;;;;;5.63;1.60;;;;;;;12.10;70.96;100902.44;3577286;40;20074;-59
2022/11/06 08:26:04;;;;;;;5.78;2.00;;;;;;;11.99;70.45;100867.28;3579500;40;20120;-59
2022/11/06 08:28:30;;;;;;;7.68;2.15;;;;;;;12.18;70.22;100896.50;3581094;40;20047;-59
2022/11/06 08:30:55;;;;;;;5.07;2.05;;;;;;;12.18;70.16;100885.72;3567645;40;20061;-59
2022/11/06 08:33:23;;;;;;;5.57;2.10;;;;;;;12.16;70.23;100880.47;3568995;40;20067;-59
2022/11/06 08:35:48;;;;;;;6.60;2.13;;;;;;;12.21;70.45;100886.41;3580557;40;20350;-59
2022/11/06 08:38:15;;;;;;;8.57;2.05;;;;;;;12.22;70.39;100880.03;3581718;40;20067;-58
2022/11/06 08:40:41;;;;;;;5.82;1.98;;;;;;;12.29;69.90;100875.97;3580296;40;20053;-59
2022/11/06 08:43:09;;;;;;;4.13;1.65;;;;;;;12.35;69.97;100885.47;3581710;40;20044;-58
2022/11/06 08:45:42;;;;;;;4.22;1.58;;;;;;;12.40;69.32;100877.03;3581853;40;20718;-58
2022/11/06 08:48:10;;;;;;;4.75;1.90;;;;;;;12.48;69.40;100874.69;3582136;40;20060;-59
2022/11/06 08:50:38;;;;;;;6.20;2.00;;;;;;;12.55;69.08;100873.31;3582153;40;20125;-59
2022/11/06 08:53:05;;;;;;;3.67;1.73;;;;;;;12.61;68.99;100867.47;3582040;40;20055;-59
2022/11/06 08:55:35;;;;;;;6.90;1.70;;;;;;;12.71;68.35;100860.47;3582736;40;20460;-58
2022/11/06 08:58:01;;;;;;;4.57;1.73;;;;;;;12.67;68.13;100831.13;3582067;40;20048;-59
2022/11/06 09:00:28;;;;;;;4.63;1.80;;;;;;;12.94;68.19;100856.16;3582664;40;20296;-59
2022/11/06 09:03:20;;;;;;;3.58;1.70;;;;;;;13.05;67.29;100847.28;3583773;40;20164;-59
2022/11/06 09:05:46;;;;;;;2.50;1.60;;;;;;;13.13;66.98;100855.72;3578734;40;20417;-59
2022/11/06 09:08:13;;;;;;;4.38;1.75;;;;;;;13.19;66.20;100844.47;3582790;40;20044;-59
2022/11/06 09:10:41;;;;;;;5.18;1.63;;;;;;;13.22;66.19;100841.56;3582423;40;20044;-58
2022/11/06 09:13:07;;;;;;;3.72;1.60;;;;;;;13.22;65.75;100836.16;3584334;40;20064;-58
2022/11/06 09:15:33;;;;;;;3.80;1.75;;;;;;;13.07;65.80;100804.88;3582427;40;20107;-58
2022/11/06 09:17:59;;;;;;;4.57;1.88;;;;;;;13.29;66.50;100833.91;3582132;40;20071;-58
2022/11/06 09:20:25;;;;;;;5.05;1.85;;;;;;;13.29;65.90;100830.31;3582363;40;20052;-57
2022/11/06 09:22:52;;;;;;;5.35;2.10;;;;;;;13.34;65.86;100828.16;3580770;40;20396;-59
2022/11/06 09:25:19;;;;;;;6.47;1.77;;;;;;;13.37;65.47;100819.81;3583004;40;20060;-59
2022/11/06 09:27:51;;;;;;;2.80;1.40;;;;;;;13.50;65.00;100814.38;3582423;40;20067;-59
2022/11/06 09:30:20;;;;;;;4.22;1.70;;;;;;;13.58;64.39;100801.19;3581320;40;20125;-59
2022/11/06 09:32:56;;;;;;;6.15;1.70;;;;;;;13.62;64.12;100808.91;3581116;40;20399;-59
2022/11/06 09:35:25;;;;;;;6.03;1.90;;;;;;;13.61;64.13;100800.94;3582635;40;20126;-59
2022/11/06 09:37:51;;;;;;;5.43;2.08;;;;;;;13.58;63.87;100799.34;3581083;40;20056;-59
2022/11/06 09:40:30;;;;;;;3.70;2.00;;;;;;;13.57;64.04;100799.44;3581374;40;20122;-59
2022/11/06 09:43:26;;;;;;;4.82;1.63;;;;;;;13.56;64.23;100803.13;3581311;40;20067;-59
2022/11/06 09:45:58;;;;;;;6.15;1.58;;;;;;;13.58;64.05;100807.44;3581021;40;20064;-58
2022/11/06 09:48:37;;;;;;;2.95;1.50;;;;;;;13.68;63.78;100803.06;3580582;40;20089;-59
2022/11/06 09:51:19;;;;;;;4.47;1.60;;;;;;;13.75;63.85;100799.91;3580853;40;20357;-59
2022/11/06 09:53:58;;;;;;;4.60;1.58;;;;;;;13.77;63.51;100796.09;3581946;40;20373;-59
2022/11/06 09:56:33;;;;;;;7.65;1.92;;;;;;;13.78;63.76;100791.56;3581666;40;20052;-59
2022/11/06 09:59:07;;;;;;;5.22;1.83;;;;;;;13.79;63.43;100794.13;3581233;40;20051;-59
2022/11/06 10:01:47;;;;;;;4.40;1.60;;;;;;;13.35;63.84;100719.16;3582400;40;20048;-58
2022/11/06 10:04:54;;;;;;;3.08;1.52;;;;;;;13.90;64.02;100796.03;3575038;40;20073;-59
2022/11/06 10:07:35;;;;;;;3.10;1.40;;;;;;;14.32;63.44;100791.00;3571473;40;20045;-59
2022/11/06 10:10:05;;;;;;;3.65;1.65;;;;;;;14.56;61.14;100783.69;3583001;40;20052;-58
2022/11/06 10:13:26;;;;;;;3.88;1.90;;;;;;;14.63;60.56;100795.75;3581359;40;20052;-57
2022/11/06 10:16:22;;;;;;;4.65;1.77;;;;;;;14.67;60.14;100780.13;3581013;40;20083;-59
2022/11/06 10:19:15;;;;;;;5.18;1.35;;;;;;;14.61;59.97;100769.78;3581325;40;20060;-59
2022/11/06 10:21:52;;;;;;;5.70;1.77;;;;;;;14.51;60.53;100769.66;3580928;40;20055;-58
2022/11/06 10:24:43;;;;;;;7.25;1.98;;;;;;;14.36;60.65;100773.53;3581350;40;20063;-59
2022/11/06 10:27:26;;;;;;;3.90;1.88;;;;;;;14.27;60.40;100768.84;3568729;40;20044;-59
2022/11/06 10:29:54;;;;;;;7.32;2.28;;;;;;;14.16;60.79;100770.56;3581449;40;20331;-58
2022/11/06 10:33:08;;;;;;;8.45;2.53;;;;;;;14.10;61.70;100768.31;3581457;40;20056;-59
2022/11/06 10:35:58;;;;;;;8.35;2.72;;;;;;;13.93;61.50;100747.16;3580818;40;20059;-58
2022/11/06 10:38:33;;;;;;;8.23;2.30;;;;;;;14.01;61.87;100760.94;3578640;40;20379;-59
2022/11/06 10:41:01;;;;;;;6.57;2.40;;;;;;;14.01;62.14;100760.94;3581877;40;20064;-59
2022/11/06 10:43:53;;;;;;;6.43;2.00;;;;;;;14.09;61.64;100755.81;3581574;40;20054;-59
2022/11/06 10:46:58;;;;;;;6.18;1.98;;;;;;;14.18;61.55;100738.00;3581444;40;20410;-59
2022/11/06 10:49:52;;;;;;;;;;;;;;;14.23;61.39;100743.03;3582400;40;20320;-58
2022/11/06 10:52:39;;;;;;;4.32;2.00;;;;;;;14.31;61.29;100730.66;3576023;40;20231;-59
2022/11/06 10:55:34;;;;;;;6.13;2.08;;;;;;;14.56;60.78;100724.19;3581456;40;20061;-60
2022/11/06 10:58:22;;;;;;;5.60;2.25;;;;;;;14.90;59.11;100707.91;3580198;40;20126;-61
2022/11/06 11:00:51;;;;;;;6.65;2.20;;;;;;;15.11;57.91;100701.72;3580178;40;20093;-60
2022/11/06 11:03:38;;;;;;;4.60;2.00;;;;;;;15.10;58.30;100703.56;3578401;40;20047;-59
2022/11/06 11:06:05;;;;;;;4.88;1.60;;;;;;;15.05;57.87;100690.41;3582058;40;20365;-60
2022/11/06 11:08:41;;;;;;;4.07;2.00;;;;;;;15.07;58.41;100696.56;3581872;40;20052;-59
2022/11/06 11:11:12;;;;;;;5.43;2.00;;;;;;;15.02;58.28;100687.94;3582345;40;20266;-59
2022/11/06 11:13:39;;;;;;;6.60;1.98;;;;;;;15.06;58.49;100686.72;3579741;40;20047;-60
2022/11/06 11:16:17;;;;;;;7.70;2.38;;;;;;;14.98;58.47;100700.03;3578272;40;20079;-59
2022/11/06 11:18:44;;;;;;;6.72;1.98;;;;;;;14.93;58.25;100699.53;3578201;40;20049;-59
2022/11/06 11:21:26;;;;;;;4.97;2.45;;;;;;;14.80;58.33;100690.69;3581452;40;20399;-59
2022/11/06 11:24:12;;;;;;;5.93;1.88;;;;;;;14.64;58.52;100677.56;3581108;40;20357;-59
2022/11/06 11:27:04;;;;;;;6.80;1.95;;;;;;;14.53;58.17;100678.44;3578355;40;20056;-58
2022/11/06 11:29:46;;;;;;;4.90;1.35;;;;;;;14.47;59.37;100687.00;3579528;40;20059;-59
2022/11/06 11:32:19;;;;;;;9.15;1.67;;;;;;;14.42;58.73;100678.41;3581823;40;20314;-59
2022/11/06 11:34:51;;;;;;;5.05;1.85;;;;;;;14.32;58.65;100664.75;3580229;40;21390;-59
2022/11/06 11:37:31;;;;;;;4.65;1.40;;;;;;;14.13;58.73;100642.88;3581254;40;20397;-59
2022/11/06 11:40:37;;;;;;;5.47;1.65;;;;;;;14.23;58.61;100667.34;3579839;40;20419;-59
2022/11/06 11:43:28;;;;;;;6.00;2.25;;;;;;;14.14;59.04;100658.09;3581522;40;20303;-60
2022/11/06 11:46:02;;;;;;;4.80;1.58;;;;;;;14.12;58.62;100660.94;3579404;40;20105;-59
2022/11/06 11:48:45;;;;;;;4.72;1.80;;;;;;;14.15;58.35;100655.28;3580579;40;20063;-59
2022/11/06 11:51:17;;;;;;;5.53;2.10;;;;;;;14.16;59.17;100659.72;3580143;40;20054;-59
2022/11/06 11:53:43;;;;;;;6.45;2.03;;;;;;;14.15;58.35;100654.44;3578990;40;20056;-59
2022/11/06 11:56:16;;;;;;;4.72;1.60;;;;;;;14.14;58.20;100642.78;3578716;40;20056;-59
2022/11/06 11:58:51;;;;;;;2.75;1.73;;;;;;;14.13;57.67;100645.59;3579272;40;20052;-59
2022/11/06 12:01:35;;;;;;;3.47;1.80;;;;;;;14.12;57.96;100636.63;3581615;40;20391;-59
2022/11/06 12:04:15;;;;;;;8.63;2.17;;;;;;;14.08;57.79;100621.63;3580107;40;20052;-59
2022/11/06 12:07:12;;;;;;;5.70;2.25;;;;;;;14.01;58.10;100617.69;3580205;40;20055;-59
2022/11/06 12:09:44;;;;;;;4.18;1.83;;;;;;;14.11;57.57;100612.41;3580428;40;20064;-58